Time;durP1;ratioP1;P1;durP2;ratioP2;P2;SDS_P1;SDS_P2;PMS_P1;PMS_P2;Temp;Humidity;BMP_temperature;BMP_pressure;BME280_temperature;BME280_humidity;BME280_pressure;Samples;Min_cycle;Max_cycle;Signal;HPM_P1;HPM_P2
2022/10/19 00:01:22;;;;;;;16.40;10.32;;;14.30;99.90;;;;;;5052774;28;20033;-53
2022/10/19 00:03:51;;;;;;;13.77;10.73;;;14.50;99.90;;;;;;5052580;28;20028;-53
2022/10/19 00:06:36;;;;;;;16.17;11.70;;;14.20;99.90;;;;;;5052602;28;20477;-53
2022/10/19 00:09:10;;;;;;;17.60;11.95;;;14.30;99.90;;;;;;5052677;28;20021;-51
2022/10/19 00:11:39;;;;;;;21.67;11.95;;;14.20;99.90;;;;;;5051245;28;20033;-49
2022/10/19 00:14:05;;;;;;;23.33;12.80;;;14.30;99.90;;;;;;5052417;28;20067;-51
2022/10/19 00:16:34;;;;;;;25.27;12.00;;;14.20;99.90;;;;;;5052281;28;20025;-50
2022/10/19 00:19:02;;;;;;;19.02;11.65;;;14.20;99.90;;;;;;5052484;28;20442;-52
2022/10/19 00:21:28;;;;;;;19.48;12.70;;;14.20;99.90;;;;;;5052272;28;20043;-53
2022/10/19 00:23:54;;;;;;;20.02;11.82;;;14.20;99.90;;;;;;5052147;28;20291;-51
2022/10/19 00:26:19;;;;;;;15.07;11.82;;;14.20;99.90;;;;;;5052655;28;20048;-48
2022/10/19 00:28:45;;;;;;;19.08;11.80;;;14.30;99.90;;;;;;5052322;28;20033;-52
2022/10/19 00:31:13;;;;;;;19.40;12.45;;;14.30;99.90;;;;;;5052193;28;20437;-51
2022/10/19 00:33:38;;;;;;;20.92;12.77;;;14.30;99.90;;;;;;5051937;28;20025;-52
2022/10/19 00:36:05;;;;;;;21.90;13.43;;;14.20;99.90;;;;;;5052058;28;20029;-49
2022/10/19 00:38:30;;;;;;;20.17;12.48;;;14.20;99.90;;;;;;5052039;28;20120;-52
2022/10/19 00:40:56;;;;;;;18.50;13.15;;;14.10;99.90;;;;;;5051115;28;20125;-48
2022/10/19 00:43:28;;;;;;;23.38;12.95;;;14.10;99.90;;;;;;5051719;28;20029;-51
2022/10/19 00:45:54;;;;;;;27.40;15.48;;;14.10;99.90;;;;;;5051811;28;20487;-49
2022/10/19 00:48:30;;;;;;;31.33;14.05;;;14.00;99.90;;;;;;5051899;28;20025;-48
2022/10/19 00:50:58;;;;;;;24.50;13.68;;;14.00;99.90;;;;;;5052012;28;20021;-50
2022/10/19 00:53:26;;;;;;;22.88;14.38;;;14.00;99.90;;;;;;5051634;28;20028;-50
2022/10/19 00:55:52;;;;;;;32.15;14.68;;;14.00;99.90;;;;;;5050885;28;20025;-50
2022/10/19 00:58:18;;;;;;;24.85;14.52;;;14.00;99.90;;;;;;5051984;28;20484;-53
2022/10/19 01:00:44;;;;;;;26.50;15.13;;;14.00;99.90;;;;;;5051699;28;20040;-52
2022/10/19 01:03:12;;;;;;;22.50;14.20;;;14.00;99.90;;;;;;5051391;28;20117;-52
2022/10/19 01:05:37;;;;;;;22.45;14.45;;;13.90;99.90;;;;;;5050114;28;20029;-52
2022/10/19 01:08:05;;;;;;;22.15;14.00;;;13.90;99.90;;;;;;5050222;28;20115;-50
2022/10/19 01:11:10;;;;;;;24.83;14.95;;;13.80;99.90;;;;;;5051792;28;20104;-50
2022/10/19 01:13:55;;;;;;;24.60;14.13;;;13.80;99.90;;;;;;5039083;28;20040;-53
2022/10/19 01:17:03;;;;;;;28.48;15.13;;;13.80;99.90;;;;;;5051285;28;20033;-47
2022/10/19 01:19:45;;;;;;;27.13;16.35;;;13.70;99.90;;;;;;5051221;28;20503;-52
2022/10/19 01:22:42;;;;;;;27.73;15.82;;;13.60;99.90;;;;;;5051011;28;20032;-53
2022/10/19 01:25:34;;;;;;;21.33;14.27;;;13.70;99.90;;;;;;5051171;28;20082;-48
2022/10/19 01:28:18;;;;;;;26.38;14.75;;;13.60;99.90;;;;;;5051543;28;20078;-51
2022/10/19 01:30:57;;;;;;;29.23;14.30;;;13.60;99.90;;;;;;5051428;28;20025;-53
2022/10/19 01:33:29;;;;;;;23.50;15.65;;;13.50;99.90;;;;;;5051181;28;20024;-50
2022/10/19 01:36:24;;;;;;;26.77;15.73;;;13.50;99.90;;;;;;5051091;28;20032;-52
2022/10/19 01:39:03;;;;;;;25.83;15.55;;;13.60;99.90;;;;;;5047607;28;20412;-49
2022/10/19 01:41:51;;;;;;;26.25;15.50;;;13.50;99.90;;;;;;5051121;28;20025;-52
2022/10/19 01:44:55;;;;;;;26.33;15.65;;;13.60;99.90;;;;;;5055108;28;20021;-51
2022/10/19 01:47:31;;;;;;;27.48;16.02;;;13.50;99.90;;;;;;5060037;28;20044;-49
2022/10/19 01:50:14;;;;;;;29.52;16.58;;;13.40;99.90;;;;;;5071494;28;20554;-53
2022/10/19 01:52:40;;;;;;;28.98;16.48;;;13.40;99.90;;;;;;5072666;28;20425;-52
2022/10/19 01:55:09;;;;;;;37.67;17.60;;;13.30;99.90;;;;;;5074630;28;20116;-48
2022/10/19 01:57:39;;;;;;;31.90;15.85;;;13.40;99.90;;;;;;5073251;28;20147;-54
2022/10/19 02:00:08;;;;;;;34.33;17.08;;;13.30;99.90;;;;;;5075063;28;20040;-52
2022/10/19 02:02:36;;;;;;;36.50;17.23;;;13.30;99.90;;;;;;5073715;28;20021;-53
2022/10/19 02:05:04;;;;;;;29.80;18.73;;;13.20;99.90;;;;;;5073054;28;20031;-47
2022/10/19 02:07:30;;;;;;;28.75;16.85;;;13.20;99.90;;;;;;5072969;28;20029;-53
2022/10/19 02:09:56;;;;;;;34.15;17.55;;;13.20;99.90;;;;;;5074354;28;20052;-51
2022/10/19 02:12:24;;;;;;;31.00;17.52;;;13.20;99.90;;;;;;5074490;28;20109;-52
2022/10/19 02:14:55;;;;;;;29.00;16.05;;;13.20;99.90;;;;;;5074801;28;20488;-52
2022/10/19 02:17:26;;;;;;;37.28;17.60;;;13.20;99.90;;;;;;5073443;28;20032;-50
2022/10/19 02:19:53;;;;;;;38.97;17.83;;;13.20;99.90;;;;;;5074716;28;20029;-52
2022/10/19 02:22:19;;;;;;;26.95;16.55;;;13.10;99.90;;;;;;5074486;28;20036;-51
2022/10/19 02:24:45;;;;;;;36.40;16.95;;;13.10;99.90;;;;;;5074768;28;20020;-50
2022/10/19 02:27:11;;;;;;;32.45;18.25;;;13.10;99.90;;;;;;5074734;28;20074;-51
2022/10/19 02:29:38;;;;;;;38.20;19.75;;;13.10;99.90;;;;;;5074859;28;20090;-49
2022/10/19 02:32:04;;;;;;;34.08;18.52;;;13.00;99.90;;;;;;5073332;28;20468;-53
2022/10/19 02:34:30;;;;;;;25.25;16.27;;;13.00;99.90;;;;;;5074570;28;20048;-51
2022/10/19 02:36:56;;;;;;;32.78;18.23;;;13.00;99.90;;;;;;5074431;28;20043;-52
2022/10/19 02:39:22;;;;;;;31.85;18.00;;;13.00;99.90;;;;;;5074318;28;20086;-49
2022/10/19 02:42:08;;;;;;;34.92;17.70;;;13.00;99.90;;;;;;5074451;28;20024;-50
2022/10/19 02:45:16;;;;;;;31.48;16.52;;;12.90;99.90;;;;;;5074541;28;20021;-50
2022/10/19 02:47:47;;;;;;;28.15;16.85;;;13.00;99.90;;;;;;5012250;28;20026;-49
2022/10/19 02:50:13;;;;;;;35.90;17.17;;;12.90;99.90;;;;;;5012342;28;20030;-50
2022/10/19 02:52:40;;;;;;;27.08;15.60;;;12.90;99.90;;;;;;5043087;28;20040;-51
2022/10/19 02:55:06;;;;;;;34.15;15.88;;;13.00;99.90;;;;;;5074158;28;20024;-55
2022/10/19 02:57:32;;;;;;;31.08;16.13;;;12.90;99.90;;;;;;5073512;28;20488;-53
2022/10/19 02:59:57;;;;;;;33.15;16.92;;;12.90;99.90;;;;;;5074113;28;20035;-55
2022/10/19 03:02:24;;;;;;;30.58;15.88;;;12.90;99.90;;;;;;5073749;28;20020;-50
2022/10/19 03:04:49;;;;;;;28.00;16.13;;;12.90;99.90;;;;;;5071858;28;20036;-53
2022/10/19 03:07:17;;;;;;;29.63;15.65;;;13.00;99.90;;;;;;5073788;28;20020;-51
2022/10/19 03:09:44;;;;;;;28.75;17.02;;;12.90;99.90;;;;;;5073973;28;20028;-53
2022/10/19 03:12:11;;;;;;;32.40;15.07;;;13.00;99.90;;;;;;5073525;28;20096;-51
2022/10/19 03:14:36;;;;;;;36.15;16.30;;;13.00;99.90;;;;;;5073977;28;20536;-50
2022/10/19 03:17:02;;;;;;;31.35;15.70;;;13.00;99.90;;;;;;5073676;28;20025;-50
2022/10/19 03:19:28;;;;;;;26.00;15.07;;;13.00;99.90;;;;;;5073877;28;20029;-54
2022/10/19 03:21:54;;;;;;;29.20;15.45;;;13.10;99.90;;;;;;5073401;28;20028;-56
2022/10/19 03:24:19;;;;;;;33.33;16.35;;;13.10;99.90;;;;;;5073698;28;20028;-49
2022/10/19 03:26:45;;;;;;;27.17;15.60;;;13.10;99.90;;;;;;5073543;28;20032;-51
2022/10/19 03:29:11;;;;;;;33.13;15.75;;;13.10;99.90;;;;;;5073697;28;20021;-55
2022/10/19 03:31:36;;;;;;;36.35;16.13;;;13.10;99.90;;;;;;5073604;28;20032;-51
2022/10/19 03:34:02;;;;;;;35.13;16.55;;;13.10;99.90;;;;;;5073503;28;20029;-51
2022/10/19 03:36:33;;;;;;;27.15;14.52;;;13.00;99.90;;;;;;5074431;28;20020;-58
2022/10/19 03:39:00;;;;;;;27.98;15.52;;;13.10;99.90;;;;;;5072968;28;20534;-51
2022/10/19 03:41:28;;;;;;;27.60;16.45;;;13.00;99.90;;;;;;5073297;28;20033;-55
2022/10/19 03:43:55;;;;;;;44.78;16.40;;;13.00;99.90;;;;;;5072900;28;20017;-49
2022/10/19 03:46:21;;;;;;;30.35;15.52;;;13.10;99.90;;;;;;5083708;22;20099;-42
2022/10/19 03:48:47;;;;;;;39.42;17.33;;;13.00;99.90;;;;;;5033242;28;20543;-43
2022/10/19 03:51:18;;;;;;;27.67;14.80;;;13.00;99.90;;;;;;5033190;28;20037;-43
2022/10/19 03:53:45;;;;;;;25.30;15.25;;;13.00;99.90;;;;;;5032811;28;20173;-42
2022/10/19 03:56:16;;;;;;;28.13;15.05;;;13.10;99.90;;;;;;5037375;28;20028;-43
2022/10/19 03:58:43;;;;;;;25.77;14.98;;;13.00;99.90;;;;;;5052899;28;20083;-42
2022/10/19 04:01:15;;;;;;;30.98;16.35;;;13.10;99.90;;;;;;5052622;28;20032;-43
2022/10/19 04:03:41;;;;;;;32.03;15.90;;;13.10;99.90;;;;;;5052961;28;20024;-48
2022/10/19 04:06:10;;;;;;;25.13;15.10;;;13.10;99.90;;;;;;5052494;28;20033;-42
2022/10/19 04:08:36;;;;;;;27.75;15.15;;;13.10;99.90;;;;;;5052557;28;20017;-41
2022/10/19 04:11:08;;;;;;;37.13;16.55;;;13.10;99.90;;;;;;5052626;28;20079;-43
2022/10/19 04:13:34;;;;;;;27.83;14.60;;;13.00;99.90;;;;;;5052262;28;20017;-45
2022/10/19 04:16:00;;;;;;;31.42;16.05;;;13.00;99.90;;;;;;5052443;28;20035;-43
2022/10/19 04:18:25;;;;;;;33.92;15.07;;;13.00;99.90;;;;;;5051042;28;20488;-43
2022/10/19 04:20:59;;;;;;;38.17;17.50;;;12.90;99.90;;;;;;5052471;28;20029;-45
2022/10/19 04:23:31;;;;;;;32.25;15.65;;;12.90;99.90;;;;;;5052466;28;20086;-43
2022/10/19 04:26:06;;;;;;;33.03;16.45;;;12.90;99.90;;;;;;5054525;28;20029;-43
2022/10/19 04:28:33;;;;;;;29.70;16.88;;;12.90;99.90;;;;;;5054475;28;20031;-43
2022/10/19 04:31:03;;;;;;;30.50;15.25;;;13.00;99.90;;;;;;5053503;28;20029;-44
2022/10/19 04:33:28;;;;;;;26.40;15.65;;;12.90;99.90;;;;;;5052958;28;20085;-43
2022/10/19 04:36:02;;;;;;;29.75;16.88;;;12.90;99.90;;;;;;5054913;28;20374;-42
2022/10/19 04:38:28;;;;;;;29.95;15.52;;;13.00;99.90;;;;;;5053133;28;20021;-42
2022/10/19 04:40:54;;;;;;;32.47;15.85;;;13.00;99.90;;;;;;5052119;28;20021;-43
2022/10/19 04:43:21;;;;;;;28.10;16.55;;;13.00;99.90;;;;;;5051757;28;20124;-48
2022/10/19 04:45:46;;;;;;;24.88;15.68;;;13.00;99.90;;;;;;5051809;28;20374;-45
2022/10/19 04:48:12;;;;;;;28.70;15.50;;;13.00;99.90;;;;;;5052033;28;20089;-41
2022/10/19 04:50:37;;;;;;;26.92;16.45;;;13.00;99.90;;;;;;5051870;28;20021;-43
2022/10/19 04:53:03;;;;;;;35.50;14.77;;;13.00;99.90;;;;;;5051536;28;20396;-43
2022/10/19 04:55:28;;;;;;;31.80;15.45;;;13.10;99.90;;;;;;5052006;28;20141;-42
2022/10/19 04:57:54;;;;;;;25.30;14.50;;;13.00;99.90;;;;;;5051931;28;20025;-42
2022/10/19 05:00:19;;;;;;;30.73;14.93;;;13.40;99.90;;;;;;5052140;28;20029;-46
2022/10/19 05:02:45;;;;;;;31.63;14.80;;;13.10;99.90;;;;;;5051522;28;20125;-43
2022/10/19 05:05:14;;;;;;;31.65;14.60;;;13.10;99.90;;;;;;5051984;28;20383;-46
2022/10/19 05:07:40;;;;;;;34.13;14.88;;;13.10;99.90;;;;;;5051959;28;20082;-48
2022/10/19 05:10:07;;;;;;;34.90;14.65;;;13.10;99.90;;;;;;5051727;28;20025;-43
2022/10/19 05:12:36;;;;;;;26.35;14.75;;;13.10;99.90;;;;;;5051510;28;20488;-42
2022/10/19 05:15:02;;;;;;;31.33;15.35;;;13.20;99.90;;;;;;5050740;28;20043;-47
2022/10/19 05:17:31;;;;;;;25.15;13.90;;;13.10;99.90;;;;;;5051512;28;20071;-46
2022/10/19 05:19:56;;;;;;;34.40;14.95;;;13.10;99.90;;;;;;5051337;28;20071;-44
2022/10/19 05:22:22;;;;;;;27.33;14.88;;;13.10;99.90;;;;;;5051287;28;20049;-46
2022/10/19 05:24:48;;;;;;;30.02;14.68;;;13.00;99.90;;;;;;5051267;28;20504;-46
2022/10/19 05:27:13;;;;;;;25.17;14.15;;;13.10;99.90;;;;;;5051056;28;20032;-46
2022/10/19 05:29:39;;;;;;;33.72;14.55;;;13.00;99.90;;;;;;5051271;28;20025;-46
2022/10/19 05:32:05;;;;;;;31.65;14.07;;;13.10;99.90;;;;;;5051244;28;20041;-43
2022/10/19 05:34:30;;;;;;;42.33;16.67;;;13.00;99.90;;;;;;5051141;28;20017;-43
2022/10/19 05:36:56;;;;;;;29.33;15.07;;;12.90;99.90;;;;;;5051394;28;20104;-47
2022/10/19 05:39:22;;;;;;;31.27;14.55;;;12.90;99.90;;;;;;5051220;28;20025;-43
2022/10/19 05:41:47;;;;;;;31.38;16.90;;;12.90;99.90;;;;;;5051046;28;20405;-46
2022/10/19 05:44:19;;;;;;;36.88;15.82;;;12.90;99.90;;;;;;5050970;28;20072;-43
2022/10/19 05:46:45;;;;;;;28.83;15.50;;;12.90;99.90;;;;;;5052012;28;20132;-45
2022/10/19 05:49:11;;;;;;;25.02;13.68;;;12.80;99.90;;;;;;5051292;28;20028;-45
2022/10/19 05:51:38;;;;;;;26.65;14.82;;;12.80;99.90;;;;;;5051181;28;20112;-43
2022/10/19 05:54:04;;;;;;;32.75;14.77;;;12.80;99.90;;;;;;5050719;28;20029;-43
2022/10/19 05:56:31;;;;;;;32.92;14.85;;;12.70;99.90;;;;;;5050795;28;20033;-42
2022/10/19 05:58:59;;;;;;;35.83;15.38;;;12.80;99.90;;;;;;5049783;28;20075;-43
2022/10/19 06:01:25;;;;;;;29.80;14.95;;;12.80;99.90;;;;;;5051211;28;20477;-47
2022/10/19 06:03:53;;;;;;;32.63;15.23;;;12.80;99.90;;;;;;5047778;28;20036;-43
2022/10/19 06:06:19;;;;;;;30.88;14.55;;;12.70;99.90;;;;;;5049126;28;20036;-50
2022/10/19 06:08:45;;;;;;;35.97;15.18;;;12.80;99.90;;;;;;5045887;28;20030;-44
2022/10/19 06:11:15;;;;;;;36.13;14.38;;;12.80;99.90;;;;;;5040954;28;20028;-43
2022/10/19 06:13:42;;;;;;;24.58;13.35;;;12.80;99.90;;;;;;5032330;28;20497;-51
2022/10/19 06:16:09;;;;;;;31.92;14.68;;;12.80;99.90;;;;;;5050125;28;20116;-49
2022/10/19 06:18:36;;;;;;;29.85;14.85;;;12.80;99.90;;;;;;5036262;28;20044;-48
2022/10/19 06:21:11;;;;;;;29.42;14.52;;;12.80;99.90;;;;;;5041940;28;20033;-51
2022/10/19 06:23:37;;;;;;;29.42;15.05;;;12.80;99.90;;;;;;5050712;28;20563;-46
2022/10/19 06:26:06;;;;;;;31.17;13.65;;;12.80;99.90;;;;;;5050685;28;20120;-47
2022/10/19 06:28:33;;;;;;;26.23;13.73;;;12.70;99.90;;;;;;5049982;28;20033;-46
2022/10/19 06:30:58;;;;;;;28.13;14.82;;;12.70;99.90;;;;;;5050482;28;20579;-46
2022/10/19 06:33:25;;;;;;;27.48;14.70;;;12.80;99.90;;;;;;5050263;28;20044;-43
2022/10/19 06:35:51;;;;;;;32.28;14.32;;;12.80;99.90;;;;;;5050401;28;20033;-45
2022/10/19 06:38:16;;;;;;;31.48;13.60;;;12.80;99.90;;;;;;5050538;28;20048;-46
2022/10/19 06:40:42;;;;;;;20.83;12.82;;;12.80;99.90;;;;;;5053684;28;20036;-47
2022/10/19 06:43:08;;;;;;;25.67;13.30;;;12.70;99.90;;;;;;5053575;28;20021;-44
2022/10/19 06:45:35;;;;;;;31.38;13.57;;;12.80;99.90;;;;;;5054614;28;20503;-43
2022/10/19 06:48:01;;;;;;;26.80;13.35;;;12.80;99.90;;;;;;5054142;28;20500;-39
2022/10/19 06:50:26;;;;;;;26.10;13.77;;;12.70;99.90;;;;;;5067223;28;20027;-44
2022/10/19 06:52:52;;;;;;;27.30;13.75;;;12.80;99.90;;;;;;5072735;28;20601;-48
2022/10/19 06:55:17;;;;;;;33.95;14.27;;;12.60;99.90;;;;;;5054435;28;20105;-43
2022/10/19 06:57:44;;;;;;;30.02;12.98;;;12.60;99.90;;;;;;5053921;28;20048;-45
2022/10/19 07:00:10;;;;;;;24.08;11.88;;;12.60;99.90;;;;;;5054123;28;20464;-45
2022/10/19 07:02:36;;;;;;;26.65;12.80;;;12.70;99.90;;;;;;5053750;28;20028;-46
2022/10/19 07:05:01;;;;;;;26.63;12.77;;;12.60;99.90;;;;;;5054407;28;20028;-41
2022/10/19 07:07:27;;;;;;;26.23;12.48;;;12.60;99.90;;;;;;5056571;28;20100;-44
2022/10/19 07:09:52;;;;;;;22.42;11.60;;;12.60;99.90;;;;;;5054293;28;20025;-46
2022/10/19 07:12:18;;;;;;;22.42;11.18;;;12.60;99.90;;;;;;5053771;28;20028;-49
2022/10/19 07:14:44;;;;;;;26.83;11.80;;;12.60;99.90;;;;;;5055138;28;20497;-47
2022/10/19 07:17:10;;;;;;;25.00;12.18;;;12.50;99.90;;;;;;5054511;28;20040;-40
2022/10/19 07:19:36;;;;;;;23.90;10.85;;;12.40;99.90;;;;;;5038276;28;20025;-52
2022/10/19 07:22:02;;;;;;;21.30;11.77;;;12.40;99.90;;;;;;5038608;28;20028;-46
2022/10/19 07:24:28;;;;;;;19.55;12.27;;;12.40;99.90;;;;;;5053770;28;20107;-48
2022/10/19 07:26:53;;;;;;;19.55;12.07;;;12.40;99.90;;;;;;5053186;28;20045;-46
2022/10/19 07:29:19;;;;;;;23.00;11.18;;;12.40;99.90;;;;;;5053814;28;20037;-46
2022/10/19 07:31:44;;;;;;;22.65;12.65;;;12.40;99.90;;;;;;5053346;28;20021;-46
2022/10/19 07:34:12;;;;;;;32.10;13.23;;;12.40;99.90;;;;;;5053434;28;20399;-42
2022/10/19 07:36:39;;;;;;;19.98;10.55;;;12.40;99.90;;;;;;5052505;28;20037;-43
2022/10/19 07:39:06;;;;;;;25.73;12.10;;;12.40;99.90;;;;;;5054232;28;20086;-42
2022/10/19 07:41:33;;;;;;;20.75;11.73;;;12.40;99.90;;;;;;5053249;28;20029;-47
2022/10/19 07:44:00;;;;;;;20.02;11.25;;;12.40;99.90;;;;;;5051905;28;20107;-44
2022/10/19 07:46:28;;;;;;;20.85;12.30;;;12.40;99.90;;;;;;5053386;28;20025;-42
2022/10/19 07:48:54;;;;;;;23.73;12.32;;;12.30;99.90;;;;;;5051834;28;20491;-46
2022/10/19 07:51:21;;;;;;;22.50;11.75;;;12.30;99.90;;;;;;5052213;28;20080;-53
2022/10/19 07:53:46;;;;;;;24.67;13.57;;;12.40;99.90;;;;;;5052637;28;20028;-44
2022/10/19 07:56:15;;;;;;;24.77;11.63;;;12.40;99.90;;;;;;5052836;28;20031;-50
2022/10/19 07:58:42;;;;;;;25.58;13.75;;;12.40;99.90;;;;;;5052405;28;20037;-47
2022/10/19 08:01:11;;;;;;;21.92;11.55;;;12.40;99.90;;;;;;5052748;28;20025;-46
2022/10/19 08:03:37;;;;;;;26.35;11.65;;;12.50;99.90;;;;;;5052286;28;20040;-49
2022/10/19 08:06:08;;;;;;;20.63;11.73;;;12.50;99.90;;;;;;5052591;28;20408;-43
2022/10/19 08:08:34;;;;;;;23.77;11.88;;;12.50;99.90;;;;;;5051715;28;20024;-41
2022/10/19 08:11:11;;;;;;;23.42;12.25;;;12.60;99.90;;;;;;5051640;28;20037;-45
2022/10/19 08:13:37;;;;;;;26.13;11.88;;;12.80;99.90;;;;;;5060089;28;20043;-51
2022/10/19 08:16:04;;;;;;;18.58;12.48;;;12.90;99.90;;;;;;5049138;28;20416;-50
2022/10/19 08:18:30;;;;;;;21.60;12.60;;;12.90;99.90;;;;;;5049413;28;20032;-47
2022/10/19 08:20:56;;;;;;;23.65;12.07;;;13.00;99.90;;;;;;5049301;28;20336;-47
2022/10/19 08:23:22;;;;;;;25.02;12.77;;;13.10;99.90;;;;;;5049058;28;20147;-51
2022/10/19 08:25:47;;;;;;;20.27;12.27;;;13.00;99.90;;;;;;5048813;28;20029;-49
2022/10/19 08:28:13;;;;;;;22.55;13.07;;;13.00;99.90;;;;;;5049798;28;20537;-47
2022/10/19 08:30:39;;;;;;;27.65;13.10;;;13.00;99.90;;;;;;5051761;28;20033;-43
2022/10/19 08:33:07;;;;;;;25.55;11.95;;;12.90;99.90;;;;;;5050268;28;20075;-47
2022/10/19 08:35:33;;;;;;;23.17;12.05;;;13.00;99.90;;;;;;5057448;28;20387;-48
2022/10/19 08:37:58;;;;;;;25.75;13.23;;;13.00;99.90;;;;;;5065964;28;20028;-46
2022/10/19 08:40:27;;;;;;;24.40;12.27;;;13.10;99.90;;;;;;5051849;28;20036;-47
2022/10/19 08:43:19;;;;;;;19.67;11.27;;;13.10;99.90;;;;;;5043299;28;20100;-45
2022/10/19 08:46:36;;;;;;;20.65;10.95;;;13.10;99.90;;;;;;5021080;28;20034;-44
2022/10/19 08:49:02;;;;;;;18.92;11.45;;;13.10;99.90;;;;;;5049224;28;20433;-46
2022/10/19 08:51:34;;;;;;;21.08;10.43;;;13.10;99.90;;;;;;5050684;28;20079;-48
2022/10/19 08:54:03;;;;;;;21.27;10.93;;;13.20;99.90;;;;;;5051614;28;20068;-48
2022/10/19 08:56:32;;;;;;;13.77;9.88;;;13.30;99.90;;;;;;5051748;28;20504;-52
2022/10/19 08:59:29;;;;;;;16.35;10.93;;;13.30;99.90;;;;;;5050099;28;20052;-47
2022/10/19 09:01:59;;;;;;;19.30;10.95;;;13.40;99.90;;;;;;5047322;28;20106;-53
2022/10/19 09:04:48;;;;;;;18.85;10.05;;;13.50;99.90;;;;;;5054926;28;20021;-51
2022/10/19 09:07:33;;;;;;;19.83;10.98;;;13.50;99.90;;;;;;5059785;28;20037;-49
2022/10/19 09:09:58;;;;;;;23.93;10.40;;;13.50;99.90;;;;;;5037836;28;20086;-49
2022/10/19 09:12:50;;;;;;;19.42;10.52;;;13.60;99.90;;;;;;5044972;28;20036;-52
2022/10/19 09:15:25;;;;;;;64.55;42.40;;;13.50;99.90;;;;;;5031615;28;20048;-51
2022/10/19 09:17:50;;;;;;;49.95;32.03;;;13.60;99.90;;;;;;5055658;28;20021;-53
2022/10/19 09:20:23;;;;;;;24.08;12.65;;;13.70;99.90;;;;;;5071424;28;20035;-49
2022/10/19 09:23:02;;;;;;;23.25;10.05;;;13.80;99.90;;;;;;5056107;28;20040;-52
2022/10/19 09:25:30;;;;;;;22.42;10.98;;;13.90;99.90;;;;;;5051152;28;20021;-47
2022/10/19 09:28:11;;;;;;;22.73;10.23;;;14.00;99.90;;;;;;5051324;28;20109;-49
2022/10/19 09:30:39;;;;;;;16.08;9.27;;;14.10;99.90;;;;;;5051613;28;20029;-52
2022/10/19 09:33:13;;;;;;;23.75;10.18;;;14.10;99.90;;;;;;5051154;28;20500;-47
2022/10/19 09:35:43;;;;;;;21.60;11.15;;;14.20;99.90;;;;;;5069899;28;20033;-45
2022/10/19 09:38:11;;;;;;;20.98;11.35;;;14.20;99.90;;;;;;5054247;28;20039;-49
2022/10/19 09:40:36;;;;;;;21.92;10.57;;;14.20;99.90;;;;;;5049200;28;20021;-48
2022/10/19 09:43:18;;;;;;;22.13;10.23;;;14.30;99.90;;;;;;5048944;28;20035;-47
2022/10/19 09:45:54;;;;;;;19.48;9.73;;;14.30;99.90;;;;;;5035978;28;20019;-46
2022/10/19 09:48:38;;;;;;;12.52;8.20;;;14.30;99.90;;;;;;5075297;22;20056;-47
2022/10/19 09:51:11;;;;;;;15.80;8.82;;;14.40;99.90;;;;;;5069337;28;20027;-52
2022/10/19 09:53:42;;;;;;;16.70;8.77;;;14.40;99.90;;;;;;5067635;28;20515;-52
2022/10/19 09:56:17;;;;;;;15.23;8.40;;;14.40;99.90;;;;;;5070145;28;20112;-45
2022/10/19 09:58:56;;;;;;;16.70;8.48;;;14.40;99.90;;;;;;5071069;28;20023;-46
2022/10/19 10:01:39;;;;;;;15.10;8.85;;;14.50;99.90;;;;;;5069235;28;20037;-51
2022/10/19 10:04:07;;;;;;;18.88;9.75;;;14.40;99.90;;;;;;5050431;28;20021;-43
2022/10/19 10:06:34;;;;;;;20.73;8.80;;;14.50;99.90;;;;;;5051085;28;20028;-51
2022/10/19 10:09:00;;;;;;;20.10;9.32;;;14.40;99.90;;;;;;5050772;28;20486;-50
2022/10/19 10:11:37;;;;;;;19.98;9.63;;;14.40;99.90;;;;;;5051050;28;20056;-49
2022/10/19 10:14:17;;;;;;;18.67;8.73;;;14.40;99.90;;;;;;5053015;28;20021;-41
2022/10/19 10:16:43;;;;;;;18.20;8.95;;;14.30;99.90;;;;;;5054866;28;20028;-52
2022/10/19 10:19:13;;;;;;;15.30;8.15;;;14.40;99.90;;;;;;5056664;28;20147;-48
2022/10/19 10:21:47;;;;;;;17.40;9.45;;;14.30;99.90;;;;;;5074287;28;20035;-53
2022/10/19 10:24:12;;;;;;;17.63;9.73;;;14.20;99.90;;;;;;5074576;28;20025;-48
2022/10/19 10:26:50;;;;;;;19.25;10.25;;;14.30;99.90;;;;;;5073152;28;20107;-47
2022/10/19 10:29:25;;;;;;;13.85;9.30;;;14.40;99.90;;;;;;5073612;28;20042;-54
2022/10/19 10:32:00;;;;;;;16.85;8.07;;;14.40;99.90;;;;;;5072700;28;20484;-58
2022/10/19 10:34:36;;;;;;;18.10;9.75;;;14.60;99.90;;;;;;5072675;28;20299;-51
2022/10/19 10:37:14;;;;;;;15.50;8.85;;;14.60;99.90;;;;;;5073874;28;20170;-54
2022/10/19 10:39:42;;;;;;;108.90;65.82;;;14.60;99.90;;;;;;5073464;28;20036;-51
2022/10/19 10:42:18;;;;;;;44.10;26.15;;;14.60;99.90;;;;;;5074123;28;20025;-53
2022/10/19 10:44:51;;;;;;;15.38;9.30;;;14.60;99.90;;;;;;5074048;28;20027;-51
2022/10/19 10:47:20;;;;;;;15.95;9.20;;;14.60;99.90;;;;;;5074241;28;20025;-52
2022/10/19 10:50:04;;;;;;;19.30;9.27;;;14.60;99.90;;;;;;5074220;28;20017;-53
2022/10/19 10:52:30;;;;;;;18.70;8.90;;;14.70;99.90;;;;;;5074033;28;20020;-53
2022/10/19 10:55:17;;;;;;;14.63;8.30;;;14.60;99.90;;;;;;5074096;28;20025;-51
2022/10/19 10:57:52;;;;;;;18.42;8.43;;;14.70;99.90;;;;;;5073920;28;20107;-49
2022/10/19 11:00:25;;;;;;;16.38;8.50;;;14.70;99.90;;;;;;5073936;28;20174;-54
2022/10/19 11:02:53;;;;;;;14.18;9.27;;;14.60;99.90;;;;;;5072861;28;20032;-52
2022/10/19 11:05:33;;;;;;;21.40;9.43;;;14.60;99.90;;;;;;5073110;28;20373;-50
2022/10/19 11:08:19;;;;;;;14.70;8.50;;;14.60;99.90;;;;;;5074146;28;20509;-53
2022/10/19 11:11:09;;;;;;;18.35;9.55;;;14.60;99.90;;;;;;5072726;28;20021;-52
2022/10/19 11:14:07;;;;;;;14.82;7.72;;;14.50;99.90;;;;;;5072565;28;20024;-54
2022/10/19 11:16:40;;;;;;;12.52;8.15;;;14.60;99.90;;;;;;5074148;28;20029;-54
2022/10/19 11:19:21;;;;;;;29.00;9.82;;;14.70;99.90;;;;;;5072713;28;20465;-54
2022/10/19 11:22:01;;;;;;;19.05;9.73;;;14.70;99.90;;;;;;5073950;28;20391;-53
2022/10/19 11:24:40;;;;;;;16.95;8.57;;;14.80;99.90;;;;;;5073375;28;20028;-54
2022/10/19 11:27:36;;;;;;;17.13;9.20;;;14.80;99.90;;;;;;5072436;28;20016;-52
2022/10/19 11:30:12;;;;;;;10.30;7.82;;;14.90;99.90;;;;;;5072520;28;20441;-51
2022/10/19 11:33:05;;;;;;;13.10;8.73;;;14.80;99.90;;;;;;5072371;28;20028;-55
2022/10/19 11:35:42;;;;;;;18.58;8.50;;;14.90;99.90;;;;;;5072394;28;20020;-56
2022/10/19 11:38:26;;;;;;;13.57;8.00;;;15.00;99.90;;;;;;5072291;28;20028;-54
2022/10/19 11:41:13;;;;;;;15.45;8.27;;;15.10;99.90;;;;;;5072374;28;20124;-52
2022/10/19 11:43:50;;;;;;;13.48;7.63;;;15.00;99.90;;;;;;5072098;28;20027;-53
2022/10/19 11:46:29;;;;;;;12.63;7.70;;;15.00;99.90;;;;;;5074086;28;20025;-53
2022/10/19 11:49:28;;;;;;;16.23;7.60;;;15.10;99.90;;;;;;5072148;28;20025;-55
2022/10/19 11:52:12;;;;;;;12.18;7.80;;;15.10;99.90;;;;;;5071910;28;20120;-55
2022/10/19 11:55:19;;;;;;;12.32;7.60;;;15.10;99.90;;;;;;5071944;28;20063;-54
2022/10/19 11:58:05;;;;;;;13.90;7.80;;;15.10;99.90;;;;;;5071805;28;20059;-54
2022/10/19 12:00:38;;;;;;;15.70;6.90;;;15.10;99.90;;;;;;5071876;28;20028;-54
2022/10/19 12:03:29;;;;;;;116.38;67.45;;;15.20;99.90;;;;;;5071900;28;20021;-50
2022/10/19 12:06:16;;;;;;;18.63;8.93;;;15.20;99.90;;;;;;5072892;28;20127;-49
2022/10/19 12:09:08;;;;;;;15.00;7.72;;;15.30;99.90;;;;;;5072633;28;20024;-50
2022/10/19 12:11:59;;;;;;;14.48;7.82;;;15.30;99.90;;;;;;5071683;28;20089;-52
2022/10/19 12:14:30;;;;;;;9.38;6.85;;;15.40;99.90;;;;;;5072634;28;20029;-52
2022/10/19 12:17:04;;;;;;;12.00;6.82;;;15.40;99.90;;;;;;5072571;28;20016;-55
2022/10/19 12:19:38;;;;;;;11.48;7.45;;;15.50;99.90;;;;;;5072587;28;20028;-51
2022/10/19 12:22:09;;;;;;;17.27;6.93;;;15.40;99.90;;;;;;5072364;28;20090;-48
2022/10/19 12:24:35;;;;;;;15.13;7.30;;;15.40;99.90;;;;;;5072363;28;20155;-56
2022/10/19 12:27:01;;;;;;;14.73;6.93;;;15.50;99.90;;;;;;5072211;28;20108;-51
2022/10/19 12:29:32;;;;;;;11.85;6.80;;;15.50;99.90;;;;;;5072382;28;20027;-52
2022/10/19 12:31:59;;;;;;;10.48;5.70;;;15.50;99.90;;;;;;5070706;28;20028;-51
2022/10/19 12:34:39;;;;;;;8.63;6.72;;;15.50;99.90;;;;;;5072216;28;20128;-49
2022/10/19 12:37:28;;;;;;;12.00;6.40;;;15.50;99.90;;;;;;5069922;28;20031;-54
2022/10/19 12:40:03;;;;;;;11.35;7.22;;;15.50;99.90;;;;;;5070711;28;20120;-52
2022/10/19 12:42:38;;;;;;;12.88;7.30;;;15.50;99.90;;;;;;5071803;28;20365;-55
2022/10/19 12:45:25;;;;;;;14.43;6.47;;;15.40;99.90;;;;;;5072056;28;20032;-52
2022/10/19 12:48:11;;;;;;;11.60;6.88;;;15.30;99.90;;;;;;5072127;28;20028;-54
2022/10/19 12:50:48;;;;;;;17.17;7.15;;;15.30;99.90;;;;;;5072540;28;20387;-51